Besuchen Sie unsere anderen Wetter Stationen:

Template documentation
and downloads

And another site



METAR-Meldungen aus der Umgebung

   
EHVK - Volkel Rnlafb, Netherlands
Entfernung von der Station bis: SW 18 km
Aktualisierung: 05-07-2020 03:29
Stark bewölkt  
Stark bewölkt  
   Wind: SW 29.6 km/h
Wind: SW 29.6 km/h
Temperatur: 18°C
Taupunkt: 17°C
Luftfeuchte: 94%
Luftdruck: 1011 hPa
Bewölkt: Stark bewölkt
Sichtbarkeit: More than 10 km
Bewölkung: leicht bewölkt 365.8 m,
Teilweise bewölkt 487.7 m,
Stark bewölkt 609.6 m
EHVK 050129Z AUTO 23016KT 200V270 9999 FEW012 SCT016 BKN020 18/17 Q1011 WHT
EDLV - Niederrhein, Germany
Entfernung von der Station bis: SO 25 km
Aktualisierung: 04-07-2020 23:50
Nicht aktuell
Stark bewölkt  
Stark bewölkt  
   Wind: SSW 20.4 km/h
Wind: SSW 20.4 km/h
Temperatur: 18°C
Taupunkt: 17°C
Luftfeuchte: 94%
Luftdruck: 1012 hPa
Bewölkt: Stark bewölkt
Sichtbarkeit: More than 10 km
Bewölkung: Stark bewölkt 274.3 m
EDLV 042150Z 21011KT 180V240 9999 BKN009 18/17 Q1012
EHDL - Deelen Rnlafb, Netherlands
Entfernung von der Station bis: N 35 km
Aktualisierung: 05-07-2020 03:25
Stark bewölkt  
Stark bewölkt  
   Wind: SW 24.1 km/h
Wind: SW 24.1 km/h
Temperatur: 18°C
Taupunkt: 17°C
Luftfeuchte: 94%
Luftdruck: 1010 hPa
Bewölkt: Stark bewölkt
Sichtbarkeit: More than 10 km
Bewölkung: leicht bewölkt 304.8 m,
Teilweise bewölkt 426.7 m,
Stark bewölkt 518.2 m
EHDL 050125Z AUTO 23013KT 180V290 9999 FEW010 SCT014 BKN017 18/17 Q1010 GRN
EHEH - Eindhoven Rnlafb, Netherlands
Entfernung von der Station bis: SW 48 km
Aktualisierung: 05-07-2020 03:25
Bewölkt  
Bewölkt  
   Wind: SW 25.9 km/h
Wind: SW 25.9 km/h
Temperatur: 19°C
Taupunkt: 16°C
Luftfeuchte: 83%
Luftdruck: 1011 hPa
Bewölkt: Bewölkt
Sichtbarkeit: More than 10 km
Bewölkung: Stark bewölkt 457.2 m,
Bewölkt 579.1 m
EHEH 050125Z AUTO 23014KT 200V290 9999 BKN015 OVC019 19/16 Q1011 WHT
EHGR - Gilze-Rijen Rnla, Netherlands
Entfernung von der Station bis: WSW 70 km
Aktualisierung: 05-07-2020 03:45
Bewölkt  
Bewölkt  
   Wind: SW 18.5 km/h<br />Gust to 18.5 km/h
Wind: SW 18.5 km/h
Gust to 18.5 km/h
Temperatur: 18°C
Taupunkt: 16°C
Luftfeuchte: 88%
Luftdruck: 1011 hPa
Bewölkt: Bewölkt
Sichtbarkeit: More than 10 km
Bewölkung: leicht bewölkt 304.8 m,
Stark bewölkt 487.7 m,
Bewölkt 609.6 m
EHGR 050145Z AUTO 23010G23KT 200V270 9999 FEW010 BKN016 OVC020 18/16 Q1011 WHT
EBBL - Kleine-Brogel(Ba, Belgium
Entfernung von der Station bis: SSW 71 km
Aktualisierung: 05-07-2020 03:25
Leichter Nieselregen, Bewölkt  
Leichter Nieselregen, Bewölkt  
   Wind: SW 25.9 km/h
Wind: SW 25.9 km/h
Temperatur: 18°C
Taupunkt: 17°C
Luftfeuchte: 94%
Luftdruck: 1012 hPa
Bewölkt: Bewölkt
Sichtbarkeit: 8 km
Bewölkung: Bewölkt 304.8 m
EBBL 050125Z AUTO 23014KT 8000 -DZ OVC010/// 18/17 Q1012 GRN

Script entwickelt von  Saratoga-weather.org Angepasst für das Template von  Weerstation Leuven

Sie finden unser Wetter-Infos auch auf:

netzwerkwettercom

European Weather Network

WeatherCloud

Weather Underground

AWEKAS

HAMweather, WeatherForYou, PWS Weather

Von uns verwendete Ausrüstung:

Wetterstation
Davis VP2

Davis VP2